Time;durP1;ratioP1;P1;durP2;ratioP2;P2;SDS_P1;SDS_P2;PMS_P1;PMS_P2;Temp;Humidity;BMP_temperature;BMP_pressure;BME280_temperature;BME280_humidity;BME280_pressure;Samples;Min_cycle;Max_cycle;Signal;HPM_P1;HPM_P2
2022/03/08 00:00:40;;;;;;;;;;;7.00;63.60;;;;;;5090919;28;20309;-74
2022/03/08 00:03:06;;;;;;;;;;;7.00;63.60;;;;;;5090870;28;19908;-75
2022/03/08 00:05:31;;;;;;;;;;;7.00;63.60;;;;;;5089520;28;19957;-74
2022/03/08 00:07:57;;;;;;;;;;;7.00;63.60;;;;;;5090845;28;19973;-76
2022/03/08 00:10:23;;;;;;;;;;;7.00;63.70;;;;;;5090680;28;19918;-75
2022/03/08 00:12:49;;;;;;;;;;;7.00;63.60;;;;;;5090684;28;19912;-74
2022/03/08 00:15:23;;;;;;;;;;;6.90;63.40;;;;;;5090824;28;19908;-76
2022/03/08 00:17:49;;;;;;;;;;;6.90;63.50;;;;;;5090651;28;20461;-75
2022/03/08 00:20:15;;;;;;;;;;;6.90;63.60;;;;;;5090572;28;20362;-76
2022/03/08 00:22:41;;;;;;;;;;;6.90;63.60;;;;;;5090565;28;19919;-74
2022/03/08 00:25:08;;;;;;;;;;;6.80;63.50;;;;;;5090543;28;19923;-74
2022/03/08 00:27:34;;;;;;;;;;;6.80;63.80;;;;;;5090373;28;20282;-75
2022/03/08 00:30:00;;;;;;;;;;;6.80;63.90;;;;;;5090482;28;19912;-74
2022/03/08 00:32:25;;;;;;;;;;;6.80;63.90;;;;;;5090397;28;19916;-74
2022/03/08 00:34:51;;;;;;;;;;;6.80;64.10;;;;;;5090077;28;19927;-74
2022/03/08 00:37:16;;;;;;;;;;;6.80;64.30;;;;;;5089928;28;19923;-75
2022/03/08 00:39:42;;;;;;;;;;;6.80;64.40;;;;;;5088909;28;19912;-76
2022/03/08 00:42:11;;;;;;;;;;;6.90;64.40;;;;;;5090034;28;19908;-72
2022/03/08 00:44:40;;;;;;;;;;;7.00;64.80;;;;;;5090018;28;19969;-75
2022/03/08 00:47:07;;;;;;;;;;;7.00;64.90;;;;;;5089905;28;20027;-73
2022/03/08 00:49:32;;;;;;;;;;;7.00;65.00;;;;;;5089926;28;19926;-72
2022/03/08 00:51:58;;;;;;;;;;;7.00;65.20;;;;;;5089918;28;20011;-75
2022/03/08 00:54:24;;;;;;;;;;;7.00;65.10;;;;;;5090006;28;19916;-75
2022/03/08 00:56:49;;;;;;;;;;;7.00;65.30;;;;;;5089911;28;19908;-76
2022/03/08 00:59:15;;;;;;;;;;;7.00;65.20;;;;;;5089696;28;20309;-75
2022/03/08 01:01:41;;;;;;;;;;;7.00;65.20;;;;;;5088366;28;19922;-75
2022/03/08 01:04:06;;;;;;;;;;;7.00;65.20;;;;;;5089776;28;19908;-75
2022/03/08 01:06:32;;;;;;;;;;;6.90;65.10;;;;;;5088325;28;20610;-74
2022/03/08 01:08:57;;;;;;;;;;;6.80;65.10;;;;;;5089763;28;19931;-75
2022/03/08 01:11:23;;;;;;;;;;;6.80;65.20;;;;;;5089532;28;20378;-74
2022/03/08 01:13:48;;;;;;;;;;;6.80;65.30;;;;;;5088319;28;19917;-75
2022/03/08 01:16:14;;;;;;;;;;;6.80;65.20;;;;;;5089442;28;19933;-75
2022/03/08 01:18:39;;;;;;;;;;;6.80;65.20;;;;;;5089524;28;20057;-74
2022/03/08 01:21:05;;;;;;;;;;;6.70;65.20;;;;;;5089311;28;20274;-76
2022/03/08 01:23:31;;;;;;;;;;;6.70;65.20;;;;;;5089341;28;19908;-75
2022/03/08 01:25:56;;;;;;;;;;;6.70;65.20;;;;;;5089481;28;19985;-75
2022/03/08 01:28:22;;;;;;;;;;;6.60;65.20;;;;;;5089356;28;19919;-74
2022/03/08 01:30:47;;;;;;;;;;;6.60;65.30;;;;;;5089252;28;20366;-75
2022/03/08 01:33:13;;;;;;;;;;;6.60;65.40;;;;;;5089181;28;20263;-74
2022/03/08 01:35:38;;;;;;;;;;;6.50;65.20;;;;;;5088875;28;19946;-75
2022/03/08 01:38:04;;;;;;;;;;;6.40;65.20;;;;;;5089156;28;19931;-74
2022/03/08 01:40:30;;;;;;;;;;;6.30;65.30;;;;;;5089091;28;19915;-74
2022/03/08 01:42:55;;;;;;;;;;;6.20;65.30;;;;;;5089062;28;19919;-75
2022/03/08 01:45:22;;;;;;;;;;;6.20;65.40;;;;;;5089078;28;20014;-75
2022/03/08 01:47:48;;;;;;;;;;;6.00;65.40;;;;;;5088280;28;20006;-75
2022/03/08 01:50:15;;;;;;;;;;;5.90;65.70;;;;;;5088972;28;19987;-75
2022/03/08 01:52:41;;;;;;;;;;;5.90;65.80;;;;;;5088776;28;19912;-75
2022/03/08 01:55:07;;;;;;;;;;;5.90;66.10;;;;;;5088871;28;19915;-74
2022/03/08 01:57:33;;;;;;;;;;;5.90;66.30;;;;;;5088735;28;19916;-74
2022/03/08 01:59:58;;;;;;;;;;;5.90;66.20;;;;;;5088713;28;19915;-74
2022/03/08 02:02:24;;;;;;;;;;;5.90;66.20;;;;;;5087457;28;19920;-75
2022/03/08 02:04:50;;;;;;;;;;;6.00;66.20;;;;;;5088799;28;19918;-72
2022/03/08 02:07:16;;;;;;;;;;;6.00;66.30;;;;;;5087338;28;19940;-74
2022/03/08 02:09:42;;;;;;;;;;;6.10;66.30;;;;;;5088976;28;19908;-75
2022/03/08 02:12:08;;;;;;;;;;;6.10;66.20;;;;;;5088530;28;19940;-75
2022/03/08 02:14:33;;;;;;;;;;;6.10;66.20;;;;;;5070457;28;20367;-75
2022/03/08 02:16:59;;;;;;;;;;;6.20;66.20;;;;;;5088570;28;19908;-75
2022/03/08 02:19:24;;;;;;;;;;;6.20;66.30;;;;;;5088519;28;20281;-75
2022/03/08 02:21:50;;;;;;;;;;;6.20;66.20;;;;;;5088680;28;20175;-75
2022/03/08 02:24:16;;;;;;;;;;;6.20;66.20;;;;;;5088408;28;19909;-75
2022/03/08 02:26:42;;;;;;;;;;;6.20;66.20;;;;;;5088325;28;20482;-75
2022/03/08 02:29:08;;;;;;;;;;;6.20;66.30;;;;;;5088355;28;19939;-75
2022/03/08 02:31:34;;;;;;;;;;;6.20;66.30;;;;;;5088452;28;20349;-75
2022/03/08 02:34:00;;;;;;;;;;;6.10;66.50;;;;;;5088141;28;20037;-75
2022/03/08 02:36:26;;;;;;;;;;;6.10;66.50;;;;;;5088327;28;19912;-75
2022/03/08 02:38:51;;;;;;;;;;;6.10;66.70;;;;;;5088446;28;19908;-75
2022/03/08 02:41:17;;;;;;;;;;;6.00;66.90;;;;;;5088161;28;19913;-74
2022/03/08 02:43:42;;;;;;;;;;;6.00;66.90;;;;;;5088369;28;19909;-74
2022/03/08 02:46:08;;;;;;;;;;;6.00;67.00;;;;;;5088059;28;19967;-75
2022/03/08 02:48:34;;;;;;;;;;;6.10;67.10;;;;;;5088120;28;20322;-74
2022/03/08 02:51:00;;;;;;;;;;;6.10;67.00;;;;;;5086845;28;19961;-74
2022/03/08 02:53:25;;;;;;;;;;;6.20;67.20;;;;;;5088164;28;20306;-74
2022/03/08 02:55:51;;;;;;;;;;;6.20;67.10;;;;;;5088082;28;19973;-75
2022/03/08 02:58:17;;;;;;;;;;;6.20;67.10;;;;;;5088172;28;19966;-76
2022/03/08 03:00:42;;;;;;;;;;;6.20;67.10;;;;;;5092068;28;19908;-74
2022/03/08 03:03:08;;;;;;;;;;;6.20;67.30;;;;;;5092164;28;19912;-75
2022/03/08 03:05:34;;;;;;;;;;;6.20;67.40;;;;;;5092053;28;20286;-75
2022/03/08 03:08:00;;;;;;;;;;;6.20;67.50;;;;;;5091965;28;19989;-75
2022/03/08 03:10:26;;;;;;;;;;;6.20;67.40;;;;;;5090524;28;19908;-75
2022/03/08 03:12:52;;;;;;;;;;;6.20;67.50;;;;;;5092034;28;19908;-75
2022/03/08 03:15:21;;;;;;;;;;;6.20;67.40;;;;;;5090574;28;19916;-75
2022/03/08 03:17:47;;;;;;;;;;;6.20;67.60;;;;;;5091808;28;19908;-74
2022/03/08 03:20:14;;;;;;;;;;;6.20;67.80;;;;;;5073431;28;19920;-75
2022/03/08 03:22:40;;;;;;;;;;;6.20;67.90;;;;;;5091784;28;20018;-75
2022/03/08 03:25:06;;;;;;;;;;;6.20;68.00;;;;;;5091746;28;20422;-76
2022/03/08 03:27:31;;;;;;;;;;;6.20;67.80;;;;;;5091447;28;19923;-75
2022/03/08 03:29:57;;;;;;;;;;;6.30;67.80;;;;;;5091529;28;19919;-74
2022/03/08 03:32:23;;;;;;;;;;;6.30;67.80;;;;;;5091627;28;20274;-75
2022/03/08 03:34:49;;;;;;;;;;;6.30;67.80;;;;;;5073148;28;19928;-76
2022/03/08 03:37:14;;;;;;;;;;;6.30;67.70;;;;;;5091527;28;20011;-75
2022/03/08 03:39:40;;;;;;;;;;;6.30;67.80;;;;;;5091442;28;19916;-74
2022/03/08 03:42:06;;;;;;;;;;;6.40;67.70;;;;;;5091456;28;20361;-75
2022/03/08 03:44:31;;;;;;;;;;;6.30;67.70;;;;;;5091323;28;19950;-74
2022/03/08 03:46:57;;;;;;;;;;;6.30;67.80;;;;;;5089792;28;19961;-74
2022/03/08 03:49:22;;;;;;;;;;;6.30;67.80;;;;;;5091480;28;19951;-75
2022/03/08 03:51:50;;;;;;;;;;;6.30;67.80;;;;;;5091230;28;20004;-76
2022/03/08 03:54:19;;;;;;;;;;;6.40;67.90;;;;;;5091042;28;19916;-74
2022/03/08 03:56:45;;;;;;;;;;;6.40;67.80;;;;;;5091098;28;19918;-74
2022/03/08 03:59:11;;;;;;;;;;;6.40;67.90;;;;;;5091196;28;19991;-74
2022/03/08 04:01:37;;;;;;;;;;;6.40;68.00;;;;;;5090857;28;19923;-75
2022/03/08 04:04:02;;;;;;;;;;;6.40;67.90;;;;;;5091385;28;20366;-75
2022/03/08 04:06:28;;;;;;;;;;;6.50;68.10;;;;;;5090781;28;19916;-74
2022/03/08 04:08:54;;;;;;;;;;;6.50;68.10;;;;;;5091035;28;19916;-74
2022/03/08 04:11:19;;;;;;;;;;;6.50;68.20;;;;;;5088690;28;19908;-75
2022/03/08 04:13:45;;;;;;;;;;;6.50;68.10;;;;;;5090780;28;19916;-74
2022/03/08 04:16:11;;;;;;;;;;;6.50;68.10;;;;;;5090780;28;19919;-75
2022/03/08 04:18:37;;;;;;;;;;;6.50;68.20;;;;;;5090701;28;19912;-74
2022/03/08 04:21:03;;;;;;;;;;;6.50;68.10;;;;;;5090586;28;20011;-75
2022/03/08 04:23:29;;;;;;;;;;;6.60;68.20;;;;;;5090542;28;20362;-74
2022/03/08 04:25:54;;;;;;;;;;;6.60;68.20;;;;;;5089224;28;20272;-74
2022/03/08 04:28:20;;;;;;;;;;;6.50;68.10;;;;;;5090642;28;19987;-75
2022/03/08 04:30:45;;;;;;;;;;;6.60;68.30;;;;;;5090825;28;19954;-74
2022/03/08 04:33:11;;;;;;;;;;;6.60;68.40;;;;;;5090451;28;19917;-74
2022/03/08 04:35:37;;;;;;;;;;;6.60;68.30;;;;;;5090332;28;19928;-74
2022/03/08 04:38:02;;;;;;;;;;;6.60;68.40;;;;;;5090388;28;19908;-76
2022/03/08 04:40:28;;;;;;;;;;;6.60;68.40;;;;;;5090236;28;20420;-75
2022/03/08 04:42:54;;;;;;;;;;;6.60;68.40;;;;;;5090191;28;20011;-75
2022/03/08 04:45:19;;;;;;;;;;;6.60;68.40;;;;;;5090414;28;19908;-74
2022/03/08 04:47:45;;;;;;;;;;;6.60;68.40;;;;;;5090057;28;19922;-74
2022/03/08 04:50:14;;;;;;;;;;;6.70;68.40;;;;;;5088902;28;19920;-74
2022/03/08 04:52:39;;;;;;;;;;;6.70;68.50;;;;;;5090274;28;19998;-75
2022/03/08 04:55:06;;;;;;;;;;;6.70;68.30;;;;;;5090002;28;20012;-74
2022/03/08 04:57:31;;;;;;;;;;;6.80;68.40;;;;;;5089965;28;19909;-74
2022/03/08 04:59:57;;;;;;;;;;;6.70;68.30;;;;;;5089672;28;20356;-75
2022/03/08 05:02:23;;;;;;;;;;;6.80;68.40;;;;;;5088417;28;19912;-76
2022/03/08 05:04:48;;;;;;;;;;;6.80;68.30;;;;;;5089874;28;20346;-73
2022/03/08 05:07:14;;;;;;;;;;;6.80;68.40;;;;;;5089482;28;19922;-74
2022/03/08 05:09:40;;;;;;;;;;;6.80;68.40;;;;;;5089655;28;19918;-74
2022/03/08 05:12:05;;;;;;;;;;;6.80;68.30;;;;;;5089481;28;19912;-74
2022/03/08 05:14:32;;;;;;;;;;;6.80;68.30;;;;;;5089591;28;20304;-74
2022/03/08 05:16:57;;;;;;;;;;;6.80;68.30;;;;;;5089609;28;19919;-74
2022/03/08 05:19:23;;;;;;;;;;;6.80;68.80;;;;;;5089600;28;20382;-75
2022/03/08 05:21:48;;;;;;;;;;;6.80;68.40;;;;;;5089012;28;20275;-74
2022/03/08 05:24:14;;;;;;;;;;;6.80;68.30;;;;;;5088988;28;19913;-75
2022/03/08 05:26:39;;;;;;;;;;;6.80;68.30;;;;;;5089164;28;19969;-75
2022/03/08 05:29:06;;;;;;;;;;;6.80;68.40;;;;;;5089350;28;19912;-73
2022/03/08 05:31:32;;;;;;;;;;;6.80;68.50;;;;;;5089235;28;19915;-75
2022/03/08 05:33:57;;;;;;;;;;;6.90;68.60;;;;;;5089079;28;19909;-74
2022/03/08 05:36:23;;;;;;;;;;;6.90;68.60;;;;;;5089528;28;19922;-75
2022/03/08 05:38:48;;;;;;;;;;;6.90;68.50;;;;;;5089600;28;19916;-76
2022/03/08 05:41:14;;;;;;;;;;;6.90;68.50;;;;;;5088962;28;19912;-76
2022/03/08 05:43:39;;;;;;;;;;;6.90;68.50;;;;;;5087897;28;20366;-75
2022/03/08 05:46:05;;;;;;;;;;;6.80;68.50;;;;;;5087618;28;20012;-75
2022/03/08 05:48:30;;;;;;;;;;;6.80;68.60;;;;;;5088971;28;20350;-74
2022/03/08 05:50:56;;;;;;;;;;;6.70;68.70;;;;;;5088879;28;19917;-75
2022/03/08 05:53:21;;;;;;;;;;;6.70;68.90;;;;;;5088644;28;20269;-74
2022/03/08 05:55:47;;;;;;;;;;;6.60;69.00;;;;;;5088762;28;20003;-74
2022/03/08 05:58:13;;;;;;;;;;;6.60;69.10;;;;;;5088769;28;19919;-74
2022/03/08 06:00:38;;;;;;;;;;;6.70;69.10;;;;;;5088762;28;20378;-74
2022/03/08 06:03:04;;;;;;;;;;;6.70;69.10;;;;;;5088613;28;19919;-75
2022/03/08 06:05:30;;;;;;;;;;;6.80;69.20;;;;;;5088775;28;19909;-75
2022/03/08 06:07:55;;;;;;;;;;;6.80;69.30;;;;;;5088609;28;20015;-74
2022/03/08 06:10:21;;;;;;;;;;;6.80;69.20;;;;;;5088418;28;20291;-74
2022/03/08 06:12:46;;;;;;;;;;;6.80;69.20;;;;;;5087259;28;20312;-75
2022/03/08 06:15:12;;;;;;;;;;;6.90;69.20;;;;;;5088475;28;19966;-74
2022/03/08 06:17:38;;;;;;;;;;;6.90;69.20;;;;;;5087128;28;19908;-75
2022/03/08 06:20:04;;;;;;;;;;;6.90;69.20;;;;;;5088327;28;19994;-75
2022/03/08 06:22:29;;;;;;;;;;;7.00;69.30;;;;;;5088505;28;19908;-75
2022/03/08 06:24:55;;;;;;;;;;;7.00;69.30;;;;;;5088377;28;19995;-74
2022/03/08 06:27:20;;;;;;;;;;;7.00;69.30;;;;;;5088244;28;19912;-75
2022/03/08 06:29:47;;;;;;;;;;;7.00;69.30;;;;;;5088408;28;19919;-75
2022/03/08 06:32:12;;;;;;;;;;;7.00;69.30;;;;;;5086904;28;19939;-76
2022/03/08 06:34:38;;;;;;;;;;;7.00;69.40;;;;;;5088143;28;19920;-75
2022/03/08 06:37:04;;;;;;;;;;;7.00;69.30;;;;;;5088335;28;20389;-75
2022/03/08 06:39:30;;;;;;;;;;;7.00;69.30;;;;;;5088242;28;19908;-74
2022/03/08 06:41:55;;;;;;;;;;;7.00;69.40;;;;;;5086836;28;19915;-75
2022/03/08 06:44:21;;;;;;;;;;;7.00;69.40;;;;;;5088180;28;19909;-74
2022/03/08 06:46:47;;;;;;;;;;;7.00;69.50;;;;;;5088133;28;19917;-74
2022/03/08 06:49:13;;;;;;;;;;;7.00;69.50;;;;;;5088068;28;20398;-75
2022/03/08 06:51:38;;;;;;;;;;;7.10;69.50;;;;;;5086403;28;20279;-75
2022/03/08 06:54:05;;;;;;;;;;;7.10;69.50;;;;;;5087491;28;19916;-76
2022/03/08 06:56:30;;;;;;;;;;;7.10;69.60;;;;;;5086535;28;19916;-73
2022/03/08 06:58:56;;;;;;;;;;;7.10;69.60;;;;;;5087877;28;19912;-75
2022/03/08 07:01:22;;;;;;;;;;;7.10;69.50;;;;;;5087850;28;19920;-75
2022/03/08 07:03:47;;;;;;;;;;;7.10;69.60;;;;;;5087802;28;19969;-75
2022/03/08 07:06:13;;;;;;;;;;;7.10;69.50;;;;;;5087539;28;19916;-75
2022/03/08 07:08:38;;;;;;;;;;;7.10;69.60;;;;;;5087596;28;19919;-75
2022/03/08 07:11:04;;;;;;;;;;;7.20;69.80;;;;;;5087494;28;19985;-75
2022/03/08 07:13:30;;;;;;;;;;;7.20;69.80;;;;;;5087482;28;19954;-73
2022/03/08 07:15:56;;;;;;;;;;;7.20;69.70;;;;;;5086103;28;19950;-74
2022/03/08 07:18:23;;;;;;;;;;;7.20;69.70;;;;;;5087534;28;19959;-74
2022/03/08 07:20:49;;;;;;;;;;;7.30;69.80;;;;;;5087669;28;19915;-73
2022/03/08 07:23:15;;;;;;;;;;;7.30;69.80;;;;;;5087492;28;20282;-74
2022/03/08 07:25:40;;;;;;;;;;;7.30;69.90;;;;;;5087666;28;20278;-75
2022/03/08 07:28:06;;;;;;;;;;;7.30;69.90;;;;;;5087674;28;19919;-71
2022/03/08 07:30:32;;;;;;;;;;;7.30;70.00;;;;;;5087497;28;19920;-74
2022/03/08 07:32:57;;;;;;;;;;;7.40;70.10;;;;;;5085641;28;19913;-74
2022/03/08 07:35:24;;;;;;;;;;;7.40;70.20;;;;;;5086850;28;19942;-74
2022/03/08 07:37:49;;;;;;;;;;;7.40;70.20;;;;;;5086847;28;19912;-74
2022/03/08 07:40:15;;;;;;;;;;;7.40;70.30;;;;;;5087330;28;19913;-74
2022/03/08 07:42:41;;;;;;;;;;;7.40;70.40;;;;;;5086324;28;19908;-74
2022/03/08 07:45:06;;;;;;;;;;;7.40;70.40;;;;;;5086129;28;19919;-74
2022/03/08 07:47:32;;;;;;;;;;;7.40;70.30;;;;;;5090849;28;19977;-73
2022/03/08 07:49:58;;;;;;;;;;;7.50;70.40;;;;;;5090957;28;19908;-74
2022/03/08 07:52:23;;;;;;;;;;;7.50;70.60;;;;;;5090815;28;19920;-74
2022/03/08 07:54:49;;;;;;;;;;;7.50;70.60;;;;;;5090867;28;20014;-75
2022/03/08 07:57:14;;;;;;;;;;;7.50;70.90;;;;;;5090402;28;19909;-74
2022/03/08 07:59:40;;;;;;;;;;;7.50;71.00;;;;;;5090364;28;19920;-74
2022/03/08 08:02:06;;;;;;;;;;;7.50;70.90;;;;;;5090569;28;19973;-75
2022/03/08 08:04:31;;;;;;;;;;;7.50;70.90;;;;;;5090929;28;20003;-74
2022/03/08 08:06:57;;;;;;;;;;;7.50;71.10;;;;;;5090470;28;19916;-74
2022/03/08 08:09:22;;;;;;;;;;;7.50;71.50;;;;;;5090513;28;19915;-74
2022/03/08 08:11:49;;;;;;;;;;;7.50;71.50;;;;;;5089046;28;19916;-75
2022/03/08 08:14:15;;;;;;;;;;;7.50;71.50;;;;;;5090517;28;19944;-74
2022/03/08 08:16:42;;;;;;;;;;;7.50;71.50;;;;;;5090228;28;20016;-74
2022/03/08 08:19:07;;;;;;;;;;;7.50;71.50;;;;;;5090013;28;19935;-76
2022/03/08 08:21:33;;;;;;;;;;;7.60;71.80;;;;;;5090076;28;20006;-75
2022/03/08 08:24:00;;;;;;;;;;;7.60;71.80;;;;;;5089429;28;19935;-73
2022/03/08 08:26:26;;;;;;;;;;;7.70;72.10;;;;;;5089362;28;20325;-74
2022/03/08 08:28:52;;;;;;;;;;;7.70;72.20;;;;;;5087735;28;19919;-74
2022/03/08 08:31:17;;;;;;;;;;;7.80;72.30;;;;;;5089113;28;19919;-74
2022/03/08 08:33:43;;;;;;;;;;;7.90;72.20;;;;;;5089492;28;19912;-74
2022/03/08 08:36:08;;;;;;;;;;;8.00;72.30;;;;;;5089044;28;19926;-75
2022/03/08 08:38:34;;;;;;;;;;;8.00;72.00;;;;;;5089426;28;19912;-75
2022/03/08 08:40:59;;;;;;;;;;;8.00;72.10;;;;;;5089438;28;19912;-73
2022/03/08 08:43:25;;;;;;;;;;;8.00;72.10;;;;;;5089487;28;20364;-74
2022/03/08 08:45:54;;;;;;;;;;;8.00;72.10;;;;;;5089299;28;19944;-73
2022/03/08 08:48:20;;;;;;;;;;;8.00;72.50;;;;;;5088706;28;19969;-73
2022/03/08 08:50:46;;;;;;;;;;;8.10;72.40;;;;;;5087390;28;19912;-74
2022/03/08 08:53:12;;;;;;;;;;;8.10;72.80;;;;;;5089099;28;20016;-75
2022/03/08 08:55:38;;;;;;;;;;;8.20;72.80;;;;;;5088753;28;19941;-74
2022/03/08 08:58:04;;;;;;;;;;;8.20;73.00;;;;;;5088593;28;20006;-75
2022/03/08 09:00:30;;;;;;;;;;;8.30;73.00;;;;;;5089642;28;19908;-74
2022/03/08 09:02:56;;;;;;;;;;;8.40;73.30;;;;;;5090428;28;19909;-73
2022/03/08 09:05:21;;;;;;;;;;;8.50;73.10;;;;;;5090302;28;20264;-74
2022/03/08 09:07:47;;;;;;;;;;;8.60;73.20;;;;;;5089804;28;19920;-73
2022/03/08 09:10:15;;;;;;;;;;;8.90;73.50;;;;;;5089147;28;19923;-74
2022/03/08 09:12:41;;;;;;;;;;;9.10;73.40;;;;;;5089598;28;19912;-74
2022/03/08 09:15:08;;;;;;;;;;;9.40;73.30;;;;;;5088387;28;19947;-74
2022/03/08 09:17:34;;;;;;;;;;;9.60;73.00;;;;;;5090080;28;19978;-74
2022/03/08 09:19:59;;;;;;;;;;;9.80;72.90;;;;;;5089126;28;19916;-74
2022/03/08 09:22:25;;;;;;;;;;;10.00;72.50;;;;;;5089256;28;19980;-74
2022/03/08 09:24:50;;;;;;;;;;;10.10;72.30;;;;;;5089364;28;19919;-74
2022/03/08 09:27:16;;;;;;;;;;;10.20;71.90;;;;;;5087432;28;20332;-75
2022/03/08 09:29:42;;;;;;;;;;;10.30;71.70;;;;;;5088597;28;20008;-75
2022/03/08 09:32:07;;;;;;;;;;;10.30;71.40;;;;;;5088391;28;19969;-74
2022/03/08 09:34:34;;;;;;;;;;;10.30;71.50;;;;;;5088736;28;20007;-74
2022/03/08 09:36:59;;;;;;;;;;;10.20;71.40;;;;;;5088985;28;19954;-75
2022/03/08 09:39:25;;;;;;;;;;;10.20;71.40;;;;;;5089070;28;19943;-75
2022/03/08 09:41:53;;;;;;;;;;;10.20;71.20;;;;;;5089073;28;19908;-75
2022/03/08 09:44:19;;;;;;;;;;;10.20;71.50;;;;;;5087557;28;19977;-74
2022/03/08 09:46:44;;;;;;;;;;;10.40;72.10;;;;;;5088297;28;19912;-73
2022/03/08 09:49:10;;;;;;;;;;;10.70;72.00;;;;;;5088389;28;19908;-75
2022/03/08 09:51:37;;;;;;;;;;;11.40;72.70;;;;;;5088343;28;19916;-75
2022/03/08 09:54:03;;;;;;;;;;;11.90;71.10;;;;;;5087946;28;19908;-73
2022/03/08 09:56:29;;;;;;;;;;;11.90;69.70;;;;;;5088234;28;19908;-76
2022/03/08 09:58:55;;;;;;;;;;;11.80;68.90;;;;;;5088453;28;19912;-74
2022/03/08 10:01:20;;;;;;;;;;;11.40;68.80;;;;;;5088255;28;20067;-74
2022/03/08 10:03:49;;;;;;;;;;;11.10;69.20;;;;;;5088009;28;19912;-74
2022/03/08 10:06:14;;;;;;;;;;;10.80;69.50;;;;;;5087709;28;19916;-75
2022/03/08 10:08:40;;;;;;;;;;;10.70;70.00;;;;;;5085570;28;19923;-75
2022/03/08 10:11:07;;;;;;;;;;;10.60;70.20;;;;;;5086294;28;20336;-74
2022/03/08 10:13:39;;;;;;;;;;;10.50;70.20;;;;;;5087810;28;19912;-74
2022/03/08 10:16:09;;;;;;;;;;;10.40;70.20;;;;;;5084708;28;19961;-75
2022/03/08 10:18:36;;;;;;;;;;;10.30;70.50;;;;;;5088186;28;20301;-74
2022/03/08 10:21:02;;;;;;;;;;;10.30;70.70;;;;;;5087581;28;20282;-74
2022/03/08 10:23:27;;;;;;;;;;;10.30;70.90;;;;;;5087561;28;19981;-75
2022/03/08 10:26:01;;;;;;;;;;;10.20;70.80;;;;;;5087841;28;20394;-74
2022/03/08 10:28:26;;;;;;;;;;;10.20;70.90;;;;;;5084898;28;19908;-74
2022/03/08 10:30:53;;;;;;;;;;;10.20;71.00;;;;;;5087443;28;19912;-74
2022/03/08 10:33:21;;;;;;;;;;;10.20;71.00;;;;;;5088631;28;19965;-74
2022/03/08 10:35:49;;;;;;;;;;;10.30;71.10;;;;;;5081715;28;20270;-73
2022/03/08 10:38:15;;;;;;;;;;;10.30;71.10;;;;;;5087856;28;19908;-74
2022/03/08 10:40:43;;;;;;;;;;;10.30;71.10;;;;;;5084447;28;19935;-75
2022/03/08 10:43:11;;;;;;;;;;;10.30;71.70;;;;;;5087548;28;19989;-75
2022/03/08 10:45:40;;;;;;;;;;;10.30;72.00;;;;;;5086061;28;19909;-74
2022/03/08 10:48:26;;;;;;;;;;;10.20;72.20;;;;;;5087372;28;19912;-74
2022/03/08 10:50:51;;;;;;;;;;;10.10;72.20;;;;;;5085499;28;20026;-75
2022/03/08 10:53:18;;;;;;;;;;;10.10;72.90;;;;;;5086228;28;20350;-74
2022/03/08 10:55:45;;;;;;;;;;;10.30;73.80;;;;;;5087427;28;20022;-75
2022/03/08 10:58:12;;;;;;;;;;;10.60;74.20;;;;;;5085265;28;20366;-76
2022/03/08 11:00:39;;;;;;;;;;;11.00;74.40;;;;;;5087116;28;20243;-75
2022/03/08 11:03:12;;;;;;;;;;;11.20;72.90;;;;;;5093874;28;20429;-74
2022/03/08 11:05:42;;;;;;;;;;;11.20;72.60;;;;;;5092505;28;19915;-75
2022/03/08 11:08:09;;;;;;;;;;;11.30;72.90;;;;;;5095851;28;19951;-74
2022/03/08 11:10:35;;;;;;;;;;;11.50;73.10;;;;;;5095535;28;20270;-74
2022/03/08 11:13:01;;;;;;;;;;;12.00;73.30;;;;;;5093700;28;19908;-74
2022/03/08 11:15:28;;;;;;;;;;;12.40;72.90;;;;;;5069895;28;19939;-75
2022/03/08 11:17:55;;;;;;;;;;;12.90;72.50;;;;;;5090482;28;19988;-75
2022/03/08 11:20:21;;;;;;;;;;;13.10;71.70;;;;;;5085997;28;19913;-74
2022/03/08 11:22:48;;;;;;;;;;;13.20;71.30;;;;;;5089575;28;19995;-75
2022/03/08 11:25:18;;;;;;;;;;;13.00;70.60;;;;;;5090158;28;19916;-75
2022/03/08 11:27:47;;;;;;;;;;;12.60;70.40;;;;;;5090204;28;19966;-73
2022/03/08 11:30:14;;;;;;;;;;;12.20;70.80;;;;;;5087454;28;19908;-74
2022/03/08 11:32:45;;;;;;;;;;;12.00;71.50;;;;;;5090268;28;19998;-74
2022/03/08 11:35:13;;;;;;;;;;;11.80;71.90;;;;;;5090380;28;19920;-74
2022/03/08 11:37:40;;;;;;;;;;;11.60;72.20;;;;;;5089146;28;20265;-74
2022/03/08 11:40:10;;;;;;;;;;;11.50;72.70;;;;;;5090258;28;19916;-73
2022/03/08 11:42:40;;;;;;;;;;;11.40;73.20;;;;;;5090359;28;20014;-74
2022/03/08 11:45:09;;;;;;;;;;;11.40;73.60;;;;;;5095002;28;20247;-74
2022/03/08 11:47:36;;;;;;;;;;;11.60;73.60;;;;;;5091750;28;19920;-75
2022/03/08 11:50:01;;;;;;;;;;;11.80;73.60;;;;;;5090669;28;19954;-76
2022/03/08 11:52:30;;;;;;;;;;;12.00;73.60;;;;;;5089516;28;19959;-75
2022/03/08 11:55:06;;;;;;;;;;;12.10;73.00;;;;;;5088259;28;19995;-75
2022/03/08 11:57:44;;;;;;;;;;;12.10;72.90;;;;;;5090703;28;19922;-75
2022/03/08 12:00:28;;;;;;;;;;;12.00;72.80;;;;;;5090659;28;19926;-76
2022/03/08 12:02:55;;;;;;;;;;;11.90;72.80;;;;;;5087876;28;19927;-75
2022/03/08 12:05:41;;;;;;;;;;;11.70;72.90;;;;;;5091055;28;19912;-74
2022/03/08 12:08:36;;;;;;;;;;;11.50;72.90;;;;;;5089468;28;20007;-75
2022/03/08 12:11:04;;;;;;;;;;;11.30;73.30;;;;;;5084469;28;19948;-74
2022/03/08 12:13:29;;;;;;;;;;;11.20;73.60;;;;;;5090160;28;19916;-75
2022/03/08 12:16:08;;;;;;;;;;;11.10;73.90;;;;;;5089871;28;20290;-74
2022/03/08 12:18:38;;;;;;;;;;;11.10;73.90;;;;;;5069417;28;19912;-75
2022/03/08 12:21:19;;;;;;;;;;;11.00;74.20;;;;;;5070194;28;19912;-77
2022/03/08 12:23:53;;;;;;;;;;;11.10;74.70;;;;;;5070642;28;19917;-75
2022/03/08 12:26:38;;;;;;;;;;;11.10;74.50;;;;;;5071084;28;19962;-73
2022/03/08 12:29:03;;;;;;;;;;;11.20;74.70;;;;;;5070158;28;19913;-75
2022/03/08 12:31:29;;;;;;;;;;;11.20;75.10;;;;;;5070011;28;20294;-75
2022/03/08 12:34:02;;;;;;;;;;;11.10;75.00;;;;;;5069488;28;19908;-74
2022/03/08 12:36:27;;;;;;;;;;;11.10;75.20;;;;;;5070542;28;19952;-77
2022/03/08 12:38:53;;;;;;;;;;;11.00;75.40;;;;;;5086071;28;20319;-73
2022/03/08 12:41:24;;;;;;;;;;;10.90;75.50;;;;;;5070877;28;20026;-74
2022/03/08 12:44:00;;;;;;;;;;;10.90;75.80;;;;;;5070379;28;19921;-74
2022/03/08 12:46:26;;;;;;;;;;;10.80;76.00;;;;;;5070189;28;19913;-75
2022/03/08 12:48:52;;;;;;;;;;;11.00;76.70;;;;;;5070598;28;19987;-78
2022/03/08 12:51:21;;;;;;;;;;;11.20;77.00;;;;;;5070511;28;19909;-76
2022/03/08 12:53:49;;;;;;;;;;;11.30;76.70;;;;;;5071240;28;19916;-76
2022/03/08 12:56:17;;;;;;;;;;;11.30;76.40;;;;;;5070553;28;19908;-74
2022/03/08 12:58:43;;;;;;;;;;;11.40;76.80;;;;;;5070392;28;19923;-75
2022/03/08 13:01:09;;;;;;;;;;;11.50;76.80;;;;;;5070357;28;19919;-74
2022/03/08 13:03:36;;;;;;;;;;;11.40;76.80;;;;;;5070116;28;19956;-75
2022/03/08 13:06:03;;;;;;;;;;;11.30;77.10;;;;;;5069752;28;20247;-74
2022/03/08 13:08:30;;;;;;;;;;;11.30;77.40;;;;;;5069520;28;19915;-76
2022/03/08 13:11:00;;;;;;;;;;;11.30;77.40;;;;;;5069116;28;19920;-74
2022/03/08 13:13:26;;;;;;;;;;;11.30;77.70;;;;;;5085270;28;19919;-74
2022/03/08 13:15:51;;;;;;;;;;;11.30;77.90;;;;;;5086908;28;20411;-73
2022/03/08 13:18:24;;;;;;;;;;;11.30;78.30;;;;;;5087841;28;19912;-74
2022/03/08 13:20:50;;;;;;;;;;;11.40;79.00;;;;;;5089507;28;19913;-74
2022/03/08 13:23:18;;;;;;;;;;;11.50;79.00;;;;;;5089547;28;19922;-74
2022/03/08 13:25:44;;;;;;;;;;;11.60;78.90;;;;;;5087836;28;20011;-74
2022/03/08 13:28:10;;;;;;;;;;;11.80;79.00;;;;;;5088496;28;20327;-74
2022/03/08 13:30:35;;;;;;;;;;;11.90;78.90;;;;;;5088585;28;19926;-75
2022/03/08 13:33:19;;;;;;;;;;;11.90;79.30;;;;;;5089143;28;20334;-75
2022/03/08 13:35:53;;;;;;;;;;;11.80;78.70;;;;;;5088976;28;19924;-75
2022/03/08 13:38:20;;;;;;;;;;;11.70;78.80;;;;;;5089461;28;19908;-75
2022/03/08 13:40:48;;;;;;;;;;;11.50;79.30;;;;;;5088156;28;20465;-75
2022/03/08 13:43:14;;;;;;;;;;;11.30;79.80;;;;;;5089157;28;19931;-73
2022/03/08 13:45:41;;;;;;;;;;;11.00;80.30;;;;;;5093635;28;20342;-75
2022/03/08 13:48:07;;;;;;;;;;;10.70;81.10;;;;;;5091543;28;20542;-74
2022/03/08 13:50:33;;;;;;;;;;;10.50;82.00;;;;;;5099344;28;20010;-75
2022/03/08 13:53:06;;;;;;;;;;;10.40;82.80;;;;;;5092694;28;19999;-74
2022/03/08 13:55:32;;;;;;;;;;;10.40;83.70;;;;;;5090542;28;20370;-74
2022/03/08 13:58:01;;;;;;;;;;;10.50;84.20;;;;;;5088835;28;19919;-74
2022/03/08 14:00:32;;;;;;;;;;;10.60;84.10;;;;;;5089434;28;20285;-73
2022/03/08 14:02:58;;;;;;;;;;;10.70;84.60;;;;;;5088553;28;19944;-74
2022/03/08 14:05:24;;;;;;;;;;;11.00;85.10;;;;;;5093888;28;19955;-73
2022/03/08 14:07:57;;;;;;;;;;;11.40;85.50;;;;;;5094377;28;19979;-74
2022/03/08 14:10:23;;;;;;;;;;;11.80;85.00;;;;;;5088846;28;19954;-73
2022/03/08 14:12:50;;;;;;;;;;;12.00;84.20;;;;;;5089004;28;19912;-73
2022/03/08 14:15:19;;;;;;;;;;;12.20;83.60;;;;;;5089866;28;19908;-73
2022/03/08 14:17:47;;;;;;;;;;;12.30;83.30;;;;;;5088697;28;19986;-73
2022/03/08 14:20:13;;;;;;;;;;;12.40;83.20;;;;;;5085774;28;19916;-73
2022/03/08 14:22:57;;;;;;;;;;;12.50;83.00;;;;;;5088322;28;20358;-73